Time;durP1;ratioP1;P1;durP2;ratioP2;P2;SDS_P1;SDS_P2;PMS_P1;PMS_P2;Temp;Humidity;BMP_temperature;BMP_pressure;BME280_temperature;BME280_humidity;BME280_pressure;Samples;Min_cycle;Max_cycle;Signal;HPM_P1;HPM_P2
2023/08/12 00:00:13;;;;;;;3.80;1.40;;;;;;;27.70;42.11;99244.91;2070490;28;20639;-50
2023/08/12 00:01:14;;;;;;;1.52;1.38;;;;;;;27.66;42.19;99244.56;2073735;28;20042;-48
2023/08/12 00:02:15;;;;;;;1.92;1.65;;;;;;;27.59;42.10;99243.94;2073288;28;20052;-48
2023/08/12 00:03:16;;;;;;;7.53;1.83;;;;;;;27.59;42.23;99238.47;2071669;28;20419;-50
2023/08/12 00:04:18;;;;;;;2.63;1.63;;;;;;;27.62;41.90;99241.53;2069490;28;20054;-48
2023/08/12 00:05:19;;;;;;;1.88;1.50;;;;;;;27.65;41.96;99239.38;2076485;28;20049;-53
2023/08/12 00:06:22;;;;;;;2.10;1.70;;;;;;;27.69;41.75;99243.25;2078115;28;20076;-48
2023/08/12 00:07:24;;;;;;;1.48;1.38;;;;;;;27.70;42.61;99236.75;2080084;28;20072;-49
2023/08/12 00:08:25;;;;;;;2.75;1.98;;;;;;;27.68;42.86;99242.44;2079159;28;20059;-48
2023/08/12 00:09:26;;;;;;;3.80;2.33;;;;;;;27.69;43.08;99243.25;2083033;28;20513;-48
2023/08/12 00:10:28;;;;;;;2.22;2.00;;;;;;;27.71;43.12;99238.38;2074736;28;20046;-49
2023/08/12 00:11:29;;;;;;;2.78;1.80;;;;;;;27.68;43.05;99236.97;2081716;28;20049;-49
2023/08/12 00:12:32;;;;;;;5.88;2.15;;;;;;;27.69;43.43;99240.53;2081119;28;20053;-48
2023/08/12 00:13:32;;;;;;;3.42;1.92;;;;;;;27.69;42.81;99240.53;2080886;28;20060;-48
2023/08/12 00:14:34;;;;;;;4.82;2.20;;;;;;;27.69;43.01;99244.06;2082589;28;20052;-48
2023/08/12 00:15:35;;;;;;;5.40;1.70;;;;;;;27.72;42.69;99237.28;2081651;28;20060;-48
2023/08/12 00:16:37;;;;;;;3.22;1.80;;;;;;;27.73;42.44;99244.41;2083662;28;20519;-48
2023/08/12 00:17:41;;;;;;;2.67;1.70;;;;;;;27.69;42.19;99240.53;2083202;28;20041;-49
2023/08/12 00:18:43;;;;;;;4.55;2.13;;;;;;;27.67;41.83;99240.78;2084019;28;20057;-48
2023/08/12 00:19:43;;;;;;;2.08;1.65;;;;;;;27.66;41.59;99241.03;2081551;28;20064;-47
2023/08/12 00:20:44;;;;;;;3.13;1.63;;;;;;;27.62;41.79;99235.25;2080755;28;20877;-51
2023/08/12 00:21:47;;;;;;;2.45;1.40;;;;;;;27.64;41.65;99241.28;2082173;28;20053;-48
2023/08/12 00:22:48;;;;;;;1.80;1.30;;;;;;;27.65;41.57;99240.19;2081680;28;20056;-48
2023/08/12 00:23:50;;;;;;;1.63;1.48;;;;;;;27.67;41.50;99238.06;2082234;28;20052;-47
2023/08/12 00:24:51;;;;;;;1.67;1.58;;;;;;;27.67;41.36;99239.97;2082158;28;20056;-47
2023/08/12 00:25:53;;;;;;;2.15;1.42;;;;;;;27.66;41.61;99241.84;2078463;28;20037;-48
2023/08/12 00:26:54;;;;;;;1.45;1.30;;;;;;;27.66;41.51;99239.13;2077945;28;20040;-49
2023/08/12 00:27:56;;;;;;;2.42;1.60;;;;;;;27.66;41.27;99230.94;2083694;28;20125;-48
2023/08/12 00:28:56;;;;;;;1.85;1.27;;;;;;;27.66;41.85;99239.13;2082311;28;20057;-48
2023/08/12 00:29:58;;;;;;;2.33;1.95;;;;;;;27.63;41.60;99234.16;2081228;28;20483;-48
2023/08/12 00:30:59;;;;;;;1.70;1.35;;;;;;;27.58;41.58;99234.09;2081423;28;20049;-49
2023/08/12 00:32:01;;;;;;;2.20;1.75;;;;;;;27.60;41.62;99240.13;2082950;28;20045;-48
2023/08/12 00:33:02;;;;;;;2.80;1.20;;;;;;;27.63;41.42;99236.91;2078767;28;20049;-51
2023/08/12 00:34:04;;;;;;;2.55;1.65;;;;;;;27.62;41.68;99237.97;2081369;28;20034;-48
2023/08/12 00:35:06;;;;;;;1.45;1.20;;;;;;;27.59;41.56;99241.22;2077539;28;20049;-48
2023/08/12 00:36:08;;;;;;;2.97;1.45;;;;;;;27.58;41.35;99236.81;2074100;28;20045;-48
2023/08/12 00:37:10;;;;;;;2.83;1.67;;;;;;;27.56;41.38;99244.44;2073404;28;20045;-48
2023/08/12 00:38:11;;;;;;;1.73;1.50;;;;;;;27.56;41.20;99241.69;2073213;28;20091;-50
2023/08/12 00:39:12;;;;;;;4.28;1.42;;;;;;;27.55;41.05;99242.75;2073981;28;20161;-48
2023/08/12 00:40:13;;;;;;;3.92;1.27;;;;;;;27.57;40.83;99246.06;2074359;28;20046;-49
2023/08/12 00:41:15;;;;;;;2.25;1.42;;;;;;;27.56;40.85;99244.44;2073198;28;20045;-48
2023/08/12 00:42:16;;;;;;;3.95;2.03;;;;;;;27.56;40.92;99238.97;2073600;28;20105;-48
2023/08/12 00:43:17;;;;;;;1.52;1.35;;;;;;;27.58;40.94;99234.09;2070554;28;20229;-48
2023/08/12 00:44:19;;;;;;;4.25;1.40;;;;;;;27.59;40.96;99243.94;2074087;28;20236;-48
2023/08/12 00:45:19;;;;;;;1.58;1.27;;;;;;;27.57;41.35;99235.16;2072270;28;20563;-48
2023/08/12 00:46:21;;;;;;;3.17;1.67;;;;;;;27.57;41.25;99237.91;2072715;28;20064;-48
2023/08/12 00:47:22;;;;;;;1.75;1.35;;;;;;;27.56;41.40;99234.34;2073707;28;20049;-47
2023/08/12 00:48:24;;;;;;;3.80;1.83;;;;;;;27.59;41.83;99241.22;2072991;28;20053;-47
2023/08/12 00:49:27;;;;;;;1.50;1.30;;;;;;;27.59;41.39;99236.56;2074405;28;20060;-47
2023/08/12 00:50:29;;;;;;;3.45;1.25;;;;;;;27.58;41.75;99234.09;2071618;28;20068;-50
2023/08/12 00:51:30;;;;;;;2.13;1.30;;;;;;;27.60;42.04;99229.22;2080642;28;20092;-49
2023/08/12 00:52:33;;;;;;;2.85;1.38;;;;;;;27.64;42.00;99227.66;2073883;28;20468;-48
2023/08/12 00:53:34;;;;;;;1.48;1.30;;;;;;;27.60;42.33;99231.94;2070443;28;20744;-47
2023/08/12 00:54:36;;;;;;;3.28;1.65;;;;;;;27.60;42.84;99235.50;2075226;28;20053;-48
2023/08/12 00:55:37;;;;;;;4.93;1.77;;;;;;;27.60;42.30;99229.22;2074134;28;20053;-47
2023/08/12 00:56:39;;;;;;;1.45;1.33;;;;;;;27.59;42.53;99230.31;2073765;28;20125;-47
2023/08/12 00:57:41;;;;;;;4.38;2.22;;;;;;;27.59;42.14;99222.13;2081884;28;20080;-48
2023/08/12 00:58:43;;;;;;;1.73;1.63;;;;;;;27.57;42.06;99227.81;2074402;28;20300;-49
2023/08/12 00:59:44;;;;;;;1.45;1.30;;;;;;;27.59;42.46;99227.56;2072076;28;20053;-48
2023/08/12 01:00:47;;;;;;;2.40;1.35;;;;;;;27.58;42.82;99229.50;2082329;28;20053;-47
2023/08/12 01:01:48;;;;;;;1.50;1.35;;;;;;;27.58;42.36;99224.03;2082304;28;20049;-48
2023/08/12 01:02:50;;;;;;;2.13;1.50;;;;;;;27.60;42.37;99221.03;2082235;28;20060;-48
2023/08/12 01:03:53;;;;;;;1.80;1.35;;;;;;;27.58;42.61;99225.91;2081267;28;20068;-48
2023/08/12 01:04:53;;;;;;;1.95;1.42;;;;;;;27.59;42.80;99230.31;2082134;28;20041;-49
2023/08/12 01:05:56;;;;;;;1.67;1.23;;;;;;;27.59;42.81;99225.69;2081988;28;20133;-48
2023/08/12 01:06:57;;;;;;;2.03;1.63;;;;;;;27.58;42.70;99220.47;2081526;28;20042;-48
2023/08/12 01:08:00;;;;;;;4.53;1.70;;;;;;;27.57;42.51;99218.81;2081100;28;20045;-48
2023/08/12 01:09:01;;;;;;;1.20;1.10;;;;;;;27.58;42.49;99221.31;2082015;28;20060;-48
2023/08/12 01:10:04;;;;;;;3.70;1.85;;;;;;;27.59;42.29;99216.69;2081468;28;20045;-49
2023/08/12 01:11:14;;;;;;;1.83;1.20;;;;;;;27.58;42.69;99220.47;2082173;28;20771;-48
2023/08/12 01:12:22;;;;;;;2.03;1.50;;;;;;;27.55;42.38;99218.22;2082193;28;20045;-48
2023/08/12 01:13:29;;;;;;;2.08;1.88;;;;;;;27.57;42.70;99218.81;2080521;28;21002;-48
2023/08/12 01:14:39;;;;;;;2.63;1.17;;;;;;;27.54;42.43;99214.69;2079231;28;20045;-49
2023/08/12 01:15:42;;;;;;;2.92;1.83;;;;;;;27.56;42.96;99217.19;2079211;28;20163;-50
2023/08/12 01:16:49;;;;;;;1.98;1.60;;;;;;;27.56;42.78;99222.63;2074594;28;20062;-48
2023/08/12 01:17:51;;;;;;;2.72;2.33;;;;;;;27.55;42.72;99223.69;2081803;28;20059;-47
2023/08/12 01:18:53;;;;;;;5.97;1.80;;;;;;;27.57;42.79;99218.81;2080236;28;20080;-49
2023/08/12 01:19:56;;;;;;;1.90;1.70;;;;;;;27.56;42.64;99217.19;2080887;28;20415;-47
2023/08/12 01:20:59;;;;;;;3.90;1.60;;;;;;;27.56;42.71;99217.19;2081933;28;20077;-48
2023/08/12 01:22:02;;;;;;;2.60;1.23;;;;;;;27.58;42.28;99212.28;2082823;28;20072;-48
2023/08/12 01:23:11;;;;;;;1.27;1.17;;;;;;;27.53;42.85;99212.22;2080147;28;20443;-48
2023/08/12 01:24:12;;;;;;;2.08;1.33;;;;;;;27.54;42.88;99214.69;2080839;28;20087;-48
2023/08/12 01:25:13;;;;;;;2.00;1.50;;;;;;;27.56;42.66;99212.56;2079448;28;20068;-49
2023/08/12 01:26:15;;;;;;;1.67;1.33;;;;;;;27.56;42.85;99214.47;2082450;28;20049;-48
2023/08/12 01:27:16;;;;;;;1.92;1.20;;;;;;;27.54;42.57;99213.88;2081258;28;20088;-48
2023/08/12 01:28:18;;;;;;;2.15;1.45;;;;;;;27.55;42.85;99215.50;2084344;28;20049;-48
2023/08/12 01:29:19;;;;;;;3.55;1.48;;;;;;;27.56;42.84;99212.56;2082836;28;20052;-48
2023/08/12 01:30:22;;;;;;;2.35;1.63;;;;;;;27.54;42.68;99208.41;2083685;28;20056;-49
2023/08/12 01:31:32;;;;;;;2.42;1.55;;;;;;;27.56;42.77;99207.09;2083004;28;20056;-48
2023/08/12 01:32:40;;;;;;;1.27;1.10;;;;;;;27.54;43.11;99203.78;2081347;28;20518;-51
2023/08/12 01:33:46;;;;;;;2.60;1.42;;;;;;;27.53;42.80;99210.31;2081956;28;20526;-51
2023/08/12 01:34:54;;;;;;;2.13;1.40;;;;;;;27.52;43.04;99202.38;2082686;28;20065;-48
2023/08/12 01:36:01;;;;;;;3.75;1.60;;;;;;;27.52;43.19;99207.84;2081860;28;20037;-49
2023/08/12 01:37:08;;;;;;;3.30;1.90;;;;;;;27.49;42.63;99203.72;2081661;28;20365;-49
2023/08/12 01:38:11;;;;;;;1.33;1.23;;;;;;;27.49;42.93;99211.06;2080425;28;20041;-49
2023/08/12 01:39:13;;;;;;;3.05;1.45;;;;;;;27.50;42.74;99210.00;2082028;28;20053;-49
2023/08/12 01:40:16;;;;;;;2.33;1.40;;;;;;;27.52;42.38;99211.38;2080480;28;20056;-49
2023/08/12 01:41:21;;;;;;;2.88;1.45;;;;;;;27.51;42.11;99206.19;2080923;28;20059;-50
2023/08/12 01:42:24;;;;;;;1.88;1.50;;;;;;;27.50;42.61;99210.00;2078592;28;20156;-48
2023/08/12 01:43:26;;;;;;;4.10;1.17;;;;;;;27.53;42.41;99204.88;2074633;28;20064;-50
2023/08/12 01:44:28;;;;;;;1.80;1.42;;;;;;;27.53;42.56;99201.34;2081545;28;20054;-51
2023/08/12 01:45:31;;;;;;;1.95;1.35;;;;;;;27.53;42.92;99209.50;2080646;28;20070;-50
2023/08/12 01:46:32;;;;;;;1.80;1.40;;;;;;;27.53;42.79;99213.06;2071836;28;20187;-48
2023/08/12 01:47:34;;;;;;;1.40;1.17;;;;;;;27.55;42.98;99204.63;2073501;28;20057;-50
2023/08/12 01:48:35;;;;;;;4.10;1.48;;;;;;;27.53;42.86;99206.78;2070284;28;20064;-49
2023/08/12 01:49:37;;;;;;;2.47;1.40;;;;;;;27.51;43.04;99208.91;2079416;28;20893;-51
2023/08/12 01:50:37;;;;;;;2.67;1.42;;;;;;;27.51;42.63;99203.47;2070698;28;20104;-51
2023/08/12 01:51:39;;;;;;;2.92;1.40;;;;;;;27.51;43.03;99208.91;2072368;28;20045;-48
2023/08/12 01:52:40;;;;;;;1.80;1.45;;;;;;;27.49;42.92;99205.63;2070219;28;20053;-47
2023/08/12 01:53:44;;;;;;;1.38;1.10;;;;;;;27.52;42.71;99205.94;2073170;28;20619;-48
2023/08/12 01:54:44;;;;;;;2.47;1.30;;;;;;;27.51;43.02;99203.47;2073991;28;20053;-49
2023/08/12 01:55:47;;;;;;;2.35;1.10;;;;;;;27.50;42.94;99205.38;2071635;28;20074;-48
2023/08/12 01:56:48;;;;;;;5.78;1.50;;;;;;;27.49;42.76;99205.63;2073245;28;20072;-49
2023/08/12 01:57:49;;;;;;;2.65;1.33;;;;;;;27.49;42.89;99200.16;2069259;28;20061;-49
2023/08/12 01:58:50;;;;;;;4.03;1.23;;;;;;;27.49;42.74;99200.16;2075873;28;20480;-48
2023/08/12 01:59:52;;;;;;;2.72;1.42;;;;;;;27.49;43.00;99194.72;2073370;28;20053;-51
2023/08/12 02:00:53;;;;;;;1.05;0.95;;;;;;;27.48;42.88;99201.25;2072676;28;20046;-49
2023/08/12 02:01:55;;;;;;;2.10;1.58;;;;;;;27.51;42.51;99196.13;2071191;28;20056;-48
2023/08/12 02:02:56;;;;;;;2.17;1.13;;;;;;;27.50;42.62;99201.84;2073270;28;20058;-51
2023/08/12 02:03:58;;;;;;;1.13;0.85;;;;;;;27.50;42.56;99196.38;2072858;28;20046;-49
2023/08/12 02:04:58;;;;;;;1.50;1.17;;;;;;;27.47;42.94;99197.72;2071350;28;20725;-48
2023/08/12 02:06:00;;;;;;;1.63;1.27;;;;;;;27.48;42.95;99191.16;2071449;28;20049;-48
2023/08/12 02:07:01;;;;;;;1.70;1.20;;;;;;;27.47;43.00;99196.84;2071404;28;20686;-48
2023/08/12 02:08:03;;;;;;;2.17;1.30;;;;;;;27.47;42.77;99194.13;2072552;28;20122;-48
2023/08/12 02:09:06;;;;;;;5.60;1.50;;;;;;;27.48;42.62;99193.06;2073969;28;20057;-48
2023/08/12 02:10:08;;;;;;;2.38;1.33;;;;;;;27.46;42.69;99201.47;2075640;28;20049;-48
2023/08/12 02:11:09;;;;;;;1.35;1.15;;;;;;;27.46;42.71;99189.78;2074089;28;20057;-49
2023/08/12 02:12:11;;;;;;;2.22;1.50;;;;;;;27.44;42.44;99189.19;2072441;28;20049;-49
2023/08/12 02:13:12;;;;;;;4.60;1.40;;;;;;;27.43;42.48;99187.53;2073637;28;20273;-48
2023/08/12 02:14:13;;;;;;;3.47;1.25;;;;;;;27.46;42.57;99192.50;2072320;28;20400;-48
2023/08/12 02:15:14;;;;;;;1.42;1.02;;;;;;;27.42;42.44;99194.91;2073775;28;20045;-49
2023/08/12 02:16:16;;;;;;;1.45;1.05;;;;;;;27.42;42.42;99194.91;2079224;28;20057;-48
2023/08/12 02:17:17;;;;;;;1.55;1.25;;;;;;;27.42;42.01;99189.44;2079626;28;20111;-48
2023/08/12 02:18:19;;;;;;;3.63;1.27;;;;;;;27.42;42.30;99191.34;2081994;28;20053;-51
2023/08/12 02:19:20;;;;;;;1.55;1.02;;;;;;;27.42;42.29;99192.16;2080039;28;20059;-49
2023/08/12 02:20:21;;;;;;;1.50;1.20;;;;;;;27.40;41.96;99186.97;2081789;28;20290;-50
2023/08/12 02:21:22;;;;;;;2.42;1.17;;;;;;;27.38;42.29;99193.72;2073753;28;20046;-48
2023/08/12 02:22:24;;;;;;;2.67;1.00;;;;;;;27.38;41.50;99191.00;2071693;28;20049;-49
2023/08/12 02:23:25;;;;;;;1.10;1.00;;;;;;;27.36;41.73;99187.72;2076211;28;20037;-48
2023/08/12 02:24:28;;;;;;;1.52;1.10;;;;;;;27.37;41.80;99189.34;2068838;28;20520;-48
2023/08/12 02:25:31;;;;;;;2.10;1.38;;;;;;;27.36;42.09;99187.72;2073010;28;20049;-51
2023/08/12 02:26:31;;;;;;;3.25;1.08;;;;;;;27.34;42.40;99187.97;2074006;28;20045;-48
2023/08/12 02:27:33;;;;;;;1.33;1.23;;;;;;;27.34;42.13;99182.50;2073880;28;20064;-50
2023/08/12 02:28:34;;;;;;;1.65;1.30;;;;;;;27.35;42.06;99181.41;2081216;28;20251;-48
2023/08/12 02:29:36;;;;;;;1.58;1.38;;;;;;;27.38;41.92;99186.38;2071532;28;20563;-48
2023/08/12 02:30:37;;;;;;;2.10;1.25;;;;;;;27.37;42.31;99187.47;2080888;28;20050;-48
2023/08/12 02:31:39;;;;;;;1.80;1.25;;;;;;;27.37;41.94;99182.00;2083209;28;20049;-48
2023/08/12 02:32:43;;;;;;;1.00;0.70;;;;;;;27.39;41.80;99184.50;2080482;28;20048;-49
2023/08/12 02:33:45;;;;;;;1.70;1.15;;;;;;;27.37;42.16;99184.72;2078026;28;20041;-47
2023/08/12 02:34:46;;;;;;;3.42;1.30;;;;;;;27.37;42.21;99182.00;2083431;28;20415;-47
2023/08/12 02:35:47;;;;;;;2.45;1.50;;;;;;;27.36;42.13;99183.09;2082989;28;20056;-47
2023/08/12 02:36:48;;;;;;;9.55;1.35;;;;;;;27.35;42.17;99184.16;2081011;28;20052;-48
2023/08/12 02:37:50;;;;;;;1.98;1.33;;;;;;;27.35;41.76;99184.16;2083776;28;20049;-48
2023/08/12 02:38:51;;;;;;;1.80;1.13;;;;;;;27.35;41.97;99186.88;2080755;28;20416;-48
2023/08/12 02:39:54;;;;;;;1.15;0.95;;;;;;;27.37;41.86;99181.19;2083852;28;20049;-48
2023/08/12 02:40:55;;;;;;;1.70;1.25;;;;;;;27.37;42.00;99182.00;2082655;28;20527;-48
2023/08/12 02:41:57;;;;;;;2.92;1.33;;;;;;;27.35;41.84;99177.88;2081076;28;20048;-47
2023/08/12 02:42:58;;;;;;;1.27;1.17;;;;;;;27.36;41.83;99183.09;2080199;28;20037;-48
2023/08/12 02:43:58;;;;;;;1.20;1.02;;;;;;;27.34;41.50;99182.50;2083199;28;20128;-48
2023/08/12 02:45:00;;;;;;;1.92;1.38;;;;;;;27.33;41.38;99174.56;2081965;28;20711;-48
2023/08/12 02:46:01;;;;;;;3.65;1.00;;;;;;;27.34;42.04;99178.97;2082113;28;20094;-49
2023/08/12 02:47:03;;;;;;;2.15;1.05;;;;;;;27.36;41.67;99176.81;2081788;28;20052;-48
2023/08/12 02:48:05;;;;;;;1.30;0.90;;;;;;;27.32;41.76;99173.75;2080947;28;20056;-47
2023/08/12 02:49:07;;;;;;;0.95;0.90;;;;;;;27.33;41.55;99180.88;2081320;28;20111;-48
2023/08/12 02:50:09;;;;;;;1.10;0.93;;;;;;;27.33;41.31;99172.69;2078184;28;20048;-48
2023/08/12 02:51:11;;;;;;;1.30;1.02;;;;;;;27.31;41.36;99177.56;2079142;28;20049;-49
2023/08/12 02:52:11;;;;;;;1.40;1.17;;;;;;;27.34;41.19;99179.78;2080349;28;20057;-47
2023/08/12 02:53:13;;;;;;;0.73;0.73;;;;;;;27.31;41.13;99176.75;2080560;28;20112;-48
2023/08/12 02:54:14;;;;;;;1.50;1.40;;;;;;;27.30;40.93;99170.47;2080296;28;20053;-48
2023/08/12 02:55:17;;;;;;;1.40;1.02;;;;;;;27.32;40.80;99173.75;2081601;28;20398;-48
2023/08/12 02:56:18;;;;;;;1.88;1.23;;;;;;;27.28;40.76;99171.78;2083022;28;20393;-48
2023/08/12 02:57:21;;;;;;;2.42;1.20;;;;;;;27.27;40.99;99173.66;2081063;28;20055;-48
2023/08/12 02:58:21;;;;;;;1.33;1.13;;;;;;;27.27;41.00;99173.66;2073749;28;20539;-50
2023/08/12 02:59:24;;;;;;;2.13;1.30;;;;;;;27.22;40.94;99167.31;2072637;28;20136;-49
2023/08/12 03:00:25;;;;;;;1.77;1.40;;;;;;;27.18;40.97;99175.97;2071703;28;20077;-48
2023/08/12 03:01:27;;;;;;;3.22;1.60;;;;;;;27.15;40.66;99168.28;2073323;28;20049;-49
2023/08/12 03:02:28;;;;;;;3.63;1.10;;;;;;;27.15;40.89;99167.44;2073589;28;20115;-48
2023/08/12 03:03:30;;;;;;;2.92;1.10;;;;;;;27.12;40.91;99174.22;2072967;28;20087;-48
2023/08/12 03:04:31;;;;;;;3.90;1.13;;;;;;;27.10;40.58;99173.63;2072387;28;20496;-48
2023/08/12 03:05:33;;;;;;;1.73;1.40;;;;;;;27.04;40.20;99173.81;2073397;28;20057;-49
2023/08/12 03:06:34;;;;;;;1.90;1.20;;;;;;;27.03;40.84;99169.44;2072135;28;20272;-49
2023/08/12 03:07:36;;;;;;;1.42;1.17;;;;;;;27.01;40.30;99168.84;2070809;28;20049;-52
2023/08/12 03:08:36;;;;;;;1.67;1.20;;;;;;;27.02;40.26;99167.78;2074934;28;20057;-50
2023/08/12 03:09:37;;;;;;;0.90;0.65;;;;;;;26.99;40.21;99173.72;2071173;28;20057;-49
2023/08/12 03:10:42;;;;;;;1.38;0.98;;;;;;;26.94;40.10;99169.00;2074212;28;20083;-48
2023/08/12 03:11:42;;;;;;;1.50;1.10;;;;;;;26.94;40.20;99167.13;2072337;28;20215;-48
2023/08/12 03:12:44;;;;;;;1.42;1.33;;;;;;;26.87;40.06;99171.88;2073517;28;20088;-48
2023/08/12 03:13:45;;;;;;;3.72;1.48;;;;;;;26.91;40.08;99170.34;2072809;28;20348;-47
2023/08/12 03:14:47;;;;;;;0.90;0.90;;;;;;;26.99;39.94;99179.16;2073481;28;20163;-48
2023/08/12 03:15:48;;;;;;;1.67;1.08;;;;;;;27.03;40.16;99175.72;2073690;28;20052;-48
2023/08/12 03:16:50;;;;;;;1.05;1.05;;;;;;;27.03;39.98;99174.88;2075540;28;20045;-49
2023/08/12 03:17:51;;;;;;;2.58;1.20;;;;;;;27.07;40.28;99181.47;2072749;28;20069;-48
2023/08/12 03:18:53;;;;;;;3.33;1.73;;;;;;;27.07;40.04;99174.13;2068486;28;20515;-48
2023/08/12 03:19:54;;;;;;;1.50;1.00;;;;;;;27.14;39.75;99179.44;2070676;28;20056;-48
2023/08/12 03:20:56;;;;;;;1.33;1.23;;;;;;;27.17;39.98;99185.22;2072689;28;20057;-48
2023/08/12 03:21:57;;;;;;;1.00;0.90;;;;;;;27.14;39.83;99182.97;2072066;28;20133;-48
2023/08/12 03:23:00;;;;;;;1.60;1.02;;;;;;;27.15;40.19;99178.34;2070643;28;20141;-47
2023/08/12 03:24:00;;;;;;;1.00;0.90;;;;;;;27.16;39.69;99182.75;2077508;28;20095;-48
2023/08/12 03:25:02;;;;;;;1.27;1.17;;;;;;;27.15;39.61;99183.78;2077685;28;20041;-48
2023/08/12 03:26:04;;;;;;;1.42;1.33;;;;;;;27.19;39.88;99187.69;2073137;28;20065;-48
2023/08/12 03:27:06;;;;;;;1.17;1.08;;;;;;;27.18;39.92;99188.78;2071986;28;20125;-48
2023/08/12 03:28:07;;;;;;;1.33;1.02;;;;;;;27.18;39.90;99191.50;2073763;28;20558;-48
2023/08/12 03:29:09;;;;;;;1.00;0.90;;;;;;;27.18;39.89;99192.31;2073427;28;20396;-48
2023/08/12 03:30:11;;;;;;;4.47;1.25;;;;;;;27.19;40.00;99187.69;2073672;28;20052;-48
2023/08/12 03:31:12;;;;;;;1.27;1.17;;;;;;;27.18;40.10;99189.59;2071547;28;20072;-50
2023/08/12 03:32:13;;;;;;;1.30;1.08;;;;;;;27.18;40.02;99183.31;2073547;28;20144;-49
2023/08/12 03:33:15;;;;;;;2.30;0.88;;;;;;;27.17;40.70;99193.41;2072650;28;20687;-51
2023/08/12 03:34:16;;;;;;;1.60;0.80;;;;;;;27.18;40.34;99194.22;2073157;28;20045;-48
2023/08/12 03:35:18;;;;;;;2.55;1.10;;;;;;;27.17;41.03;99187.13;2071135;28;20045;-48
2023/08/12 03:36:19;;;;;;;1.52;1.15;;;;;;;27.20;41.04;99194.81;2071289;28;20050;-49
2023/08/12 03:37:21;;;;;;;1.20;1.10;;;;;;;27.17;41.27;99189.84;2072336;28;20153;-51
2023/08/12 03:38:21;;;;;;;0.98;0.80;;;;;;;27.15;40.82;99191.97;2073780;28;20126;-49
2023/08/12 03:39:23;;;;;;;1.60;1.48;;;;;;;27.18;41.11;99188.78;2070730;28;20114;-48
2023/08/12 03:40:24;;;;;;;1.75;1.20;;;;;;;27.18;41.40;99194.22;2081501;28;20049;-48
2023/08/12 03:41:27;;;;;;;1.20;1.00;;;;;;;27.18;41.52;99189.59;2078036;28;20570;-50
2023/08/12 03:42:28;;;;;;;1.48;1.38;;;;;;;27.21;41.03;99199.16;2082872;28;20456;-48
2023/08/12 03:43:30;;;;;;;1.42;0.95;;;;;;;27.21;40.55;99193.72;2073314;28;20060;-51
2023/08/12 03:44:31;;;;;;;1.35;1.20;;;;;;;27.22;40.78;99189.09;2079794;28;20041;-50
2023/08/12 03:45:32;;;;;;;1.13;0.90;;;;;;;27.22;40.39;99191.81;2079283;28;20153;-48
2023/08/12 03:46:34;;;;;;;2.58;1.15;;;;;;;27.23;40.28;99186.13;2081872;28;20506;-52
2023/08/12 03:47:35;;;;;;;1.23;0.88;;;;;;;27.24;40.19;99187.78;2081519;28;20064;-51
2023/08/12 03:48:36;;;;;;;1.52;1.35;;;;;;;27.21;40.39;99193.72;2082685;28;20224;-48
2023/08/12 03:49:38;;;;;;;1.25;1.13;;;;;;;27.23;40.53;99190.75;2081541;28;20077;-49
2023/08/12 03:50:39;;;;;;;5.97;1.05;;;;;;;27.22;40.12;99189.94;2081176;28;20080;-48
2023/08/12 03:51:41;;;;;;;4.50;0.80;;;;;;;27.22;40.16;99194.53;2083778;28;20044;-49
2023/08/12 03:52:42;;;;;;;3.05;1.00;;;;;;;27.22;39.86;99189.94;2082484;28;20060;-52
2023/08/12 03:53:44;;;;;;;0.95;0.88;;;;;;;27.20;40.04;99185.81;2080017;28;20137;-51
2023/08/12 03:54:45;;;;;;;2.88;1.20;;;;;;;27.20;39.92;99192.09;2083935;28;20060;-48
2023/08/12 03:55:47;;;;;;;2.25;0.93;;;;;;;27.11;39.85;99190.81;2081059;28;20518;-48
2023/08/12 03:56:49;;;;;;;1.58;1.10;;;;;;;27.07;39.62;99189.66;2079727;28;20334;-48
2023/08/12 03:57:51;;;;;;;1.83;0.88;;;;;;;27.05;39.52;99187.19;2081598;28;20056;-49
2023/08/12 03:58:52;;;;;;;2.03;1.35;;;;;;;27.04;39.73;99187.41;2080628;28;20073;-48
2023/08/12 03:59:53;;;;;;;2.13;1.05;;;;;;;27.06;39.51;99190.72;2081936;28;20053;-51
2023/08/12 04:00:55;;;;;;;0.82;0.70;;;;;;;27.03;39.40;99189.31;2080376;28;20045;-50
2023/08/12 04:01:56;;;;;;;2.55;0.93;;;;;;;27.03;39.75;99188.50;2079511;28;20037;-49
2023/08/12 04:02:58;;;;;;;3.22;1.02;;;;;;;27.04;39.50;99187.41;2082226;28;20041;-49
2023/08/12 04:03:58;;;;;;;0.88;0.88;;;;;;;27.08;39.30;99194.00;2079613;28;20092;-49
2023/08/12 04:05:00;;;;;;;3.03;1.33;;;;;;;27.07;39.62;99186.91;2081361;28;20274;-50
2023/08/12 04:06:03;;;;;;;1.55;0.95;;;;;;;27.05;39.37;99189.91;2080878;28;20243;-52
2023/08/12 04:07:04;;;;;;;0.80;0.80;;;;;;;27.03;39.29;99185.78;2077650;28;20476;-51
2023/08/12 04:08:06;;;;;;;2.83;1.10;;;;;;;27.06;39.43;99185.28;2068892;28;20057;-49
2023/08/12 04:09:06;;;;;;;2.10;1.42;;;;;;;27.07;39.06;99186.91;2071412;28;20412;-49
2023/08/12 04:10:09;;;;;;;1.52;1.10;;;;;;;27.06;39.25;99188.81;2076758;28;20088;-48
2023/08/12 04:11:10;;;;;;;1.92;1.27;;;;;;;27.05;39.71;99186.34;2079642;28;20312;-49
2023/08/12 04:12:13;;;;;;;1.15;1.05;;;;;;;27.06;39.70;99188.00;2081162;28;20128;-51
2023/08/12 04:13:14;;;;;;;1.27;0.98;;;;;;;27.07;39.94;99184.19;2080814;28;20048;-49
2023/08/12 04:14:16;;;;;;;1.23;1.02;;;;;;;27.10;40.14;99191.88;2079329;28;20045;-49
2023/08/12 04:15:17;;;;;;;2.38;0.90;;;;;;;27.08;39.54;99197.56;2079673;28;20153;-50
2023/08/12 04:16:19;;;;;;;1.35;0.88;;;;;;;27.07;39.71;99186.91;2080741;28;20191;-51
2023/08/12 04:17:20;;;;;;;1.08;0.90;;;;;;;27.10;39.99;99184.53;2079627;28;20048;-50
2023/08/12 04:18:22;;;;;;;0.90;0.90;;;;;;;27.11;39.98;99193.53;2079201;28;20076;-48
2023/08/12 04:19:23;;;;;;;0.93;0.90;;;;;;;27.11;39.69;99190.81;2080842;28;20609;-49
2023/08/12 04:20:25;;;;;;;0.82;0.70;;;;;;;27.10;39.36;99191.88;2081093;28;21516;-48
2023/08/12 04:21:26;;;;;;;1.08;0.98;;;;;;;27.07;39.89;99193.19;2081132;28;20468;-51
2023/08/12 04:22:28;;;;;;;2.95;1.00;;;;;;;27.08;39.49;99189.41;2082722;28;20217;-48
2023/08/12 04:23:29;;;;;;;1.42;1.20;;;;;;;27.11;39.53;99193.53;2079096;28;20132;-48
2023/08/12 04:24:31;;;;;;;2.08;1.48;;;;;;;27.11;39.42;99182.66;2080637;28;20044;-54
2023/08/12 04:25:32;;;;;;;1.08;0.85;;;;;;;27.11;39.67;99190.81;2081841;28;20059;-49
2023/08/12 04:26:33;;;;;;;2.78;1.42;;;;;;;27.10;39.86;99194.59;2080264;28;20419;-49
2023/08/12 04:27:36;;;;;;;4.45;1.52;;;;;;;27.09;39.51;99184.78;2082647;28;20068;-49
2023/08/12 04:28:38;;;;;;;1.50;1.35;;;;;;;27.09;39.66;99191.06;2081430;28;20049;-49
2023/08/12 04:29:39;;;;;;;3.70;1.40;;;;;;;27.09;39.50;99190.22;2080380;28;20064;-49
2023/08/12 04:30:43;;;;;;;2.75;1.27;;;;;;;27.08;39.82;99188.56;2081073;28;20076;-48
2023/08/12 04:31:44;;;;;;;2.35;0.93;;;;;;;27.11;39.70;99188.91;2082528;28;20063;-49
2023/08/12 04:32:46;;;;;;;1.63;0.90;;;;;;;27.11;39.96;99182.66;2080674;28;20080;-48
2023/08/12 04:33:49;;;;;;;3.17;1.17;;;;;;;27.09;40.08;99188.31;2081763;28;20045;-50
2023/08/12 04:34:51;;;;;;;1.02;0.93;;;;;;;27.12;40.22;99189.72;2080879;28;20080;-48
2023/08/12 04:35:52;;;;;;;1.95;1.25;;;;;;;27.12;40.05;99187.00;2082988;28;20049;-48
2023/08/12 04:36:54;;;;;;;2.30;0.98;;;;;;;27.11;40.01;99190.81;2082221;28;20301;-49
2023/08/12 04:37:55;;;;;;;1.30;1.00;;;;;;;27.09;40.18;99193.78;2081988;28;20048;-49
2023/08/12 04:38:56;;;;;;;0.65;0.65;;;;;;;27.08;40.01;99188.56;2082336;28;20475;-48
2023/08/12 04:39:58;;;;;;;2.72;1.33;;;;;;;27.12;39.80;99189.72;2079998;28;20056;-48
2023/08/12 04:40:59;;;;;;;1.58;1.02;;;;;;;27.10;40.27;99197.31;2076915;28;20148;-52
2023/08/12 04:42:00;;;;;;;1.63;1.23;;;;;;;27.07;40.13;99195.91;2073877;28;20282;-48
2023/08/12 04:43:03;;;;;;;3.20;1.23;;;;;;;27.07;39.95;99189.66;2074459;28;20045;-49
2023/08/12 04:44:06;;;;;;;1.70;1.10;;;;;;;27.11;40.25;99199.00;2073938;28;20120;-48
2023/08/12 04:45:07;;;;;;;1.27;0.93;;;;;;;27.10;39.90;99192.69;2073805;28;20041;-49
2023/08/12 04:46:09;;;;;;;1.27;1.00;;;;;;;27.12;40.27;99189.72;2075442;28;20057;-48
2023/08/12 04:47:10;;;;;;;1.13;1.02;;;;;;;27.10;39.70;99191.88;2076535;28;20550;-48
2023/08/12 04:48:11;;;;;;;1.88;1.00;;;;;;;27.12;40.06;99200.63;2081216;28;20045;-48
2023/08/12 04:49:13;;;;;;;1.20;1.00;;;;;;;27.14;40.03;99198.50;2084451;28;20049;-49
2023/08/12 04:50:14;;;;;;;2.78;1.10;;;;;;;27.10;40.12;99194.59;2083846;28;20288;-48
2023/08/12 04:51:15;;;;;;;1.50;0.98;;;;;;;27.08;39.93;99188.56;2084433;28;20041;-48